sensor_id;sensor_type;location;lat;lon;timestamp;pressure;altitude;pressure_sealevel;temperature;humidity
55466;BME280;41329;41.594;23.810;2023-04-08T00:02:18;95359.47;;;6.44;55.45
55466;BME280;41329;41.594;23.810;2023-04-08T00:04:44;95373.09;;;6.53;55.35
55466;BME280;41329;41.594;23.810;2023-04-08T00:07:09;95346.44;;;6.41;55.37
55466;BME280;41329;41.594;23.810;2023-04-08T00:09:35;95366.56;;;6.45;55.39
55466;BME280;41329;41.594;23.810;2023-04-08T00:12:00;95345.97;;;6.27;55.21
55466;BME280;41329;41.594;23.810;2023-04-08T00:14:26;95360.41;;;6.36;55.42
55466;BME280;41329;41.594;23.810;2023-04-08T00:16:51;95354.56;;;6.26;55.53
55466;BME280;41329;41.594;23.810;2023-04-08T00:19:17;95365.09;;;6.00;55.63
55466;BME280;41329;41.594;23.810;2023-04-08T00:21:42;95366.00;;;5.92;55.90
55466;BME280;41329;41.594;23.810;2023-04-08T00:24:08;95383.38;;;5.84;57.46
55466;BME280;41329;41.594;23.810;2023-04-08T00:26:33;95365.63;;;5.81;57.14
55466;BME280;41329;41.594;23.810;2023-04-08T00:28:59;95369.84;;;5.79;57.76
55466;BME280;41329;41.594;23.810;2023-04-08T00:31:24;95370.63;;;5.79;57.51
55466;BME280;41329;41.594;23.810;2023-04-08T00:33:50;95368.22;;;5.66;57.99
55466;BME280;41329;41.594;23.810;2023-04-08T00:36:15;95379.31;;;5.69;57.86
55466;BME280;41329;41.594;23.810;2023-04-08T00:38:41;95385.44;;;5.54;58.99
55466;BME280;41329;41.594;23.810;2023-04-08T00:41:07;95376.53;;;5.57;58.63
55466;BME280;41329;41.594;23.810;2023-04-08T00:43:32;95382.16;;;5.61;58.94
55466;BME280;41329;41.594;23.810;2023-04-08T00:45:58;95379.97;;;5.54;58.69
55466;BME280;41329;41.594;23.810;2023-04-08T00:48:23;95396.44;;;5.54;58.38
55466;BME280;41329;41.594;23.810;2023-04-08T00:50:49;95397.31;;;5.46;58.38
55466;BME280;41329;41.594;23.810;2023-04-08T00:53:17;95402.22;;;5.41;59.10
55466;BME280;41329;41.594;23.810;2023-04-08T00:55:43;95394.91;;;5.24;59.79
55466;BME280;41329;41.594;23.810;2023-04-08T00:58:09;95411.09;;;5.38;59.44
55466;BME280;41329;41.594;23.810;2023-04-08T01:00:35;95415.44;;;5.39;59.79
55466;BME280;41329;41.594;23.810;2023-04-08T01:03:17;95411.69;;;5.43;59.79
55466;BME280;41329;41.594;23.810;2023-04-08T01:08:13;95383.78;;;5.41;60.15
55466;BME280;41329;41.594;23.810;2023-04-08T01:10:40;95390.69;;;5.47;60.21
55466;BME280;41329;41.594;23.810;2023-04-08T01:13:11;95399.28;;;5.58;59.91
55466;BME280;41329;41.594;23.810;2023-04-08T01:15:38;95398.25;;;5.62;60.06
55466;BME280;41329;41.594;23.810;2023-04-08T01:18:09;95405.13;;;5.56;60.51
55466;BME280;41329;41.594;23.810;2023-04-08T01:20:37;95406.25;;;5.55;60.74
55466;BME280;41329;41.594;23.810;2023-04-08T01:23:09;95408.13;;;5.63;61.08
55466;BME280;41329;41.594;23.810;2023-04-08T01:25:38;95397.47;;;5.62;60.98
55466;BME280;41329;41.594;23.810;2023-04-08T01:28:09;95404.00;;;5.69;60.95
55466;BME280;41329;41.594;23.810;2023-04-08T01:30:38;95410.75;;;5.72;60.89
55466;BME280;41329;41.594;23.810;2023-04-08T01:33:05;95393.59;;;5.63;61.42
55466;BME280;41329;41.594;23.810;2023-04-08T01:35:31;95413.28;;;5.77;61.04
55466;BME280;41329;41.594;23.810;2023-04-08T01:37:58;95413.16;;;5.73;60.90
55466;BME280;41329;41.594;23.810;2023-04-08T01:40:24;95421.47;;;5.85;61.36
55466;BME280;41329;41.594;23.810;2023-04-08T01:42:53;95431.09;;;5.91;61.65
55466;BME280;41329;41.594;23.810;2023-04-08T01:45:20;95417.25;;;5.88;61.27
55466;BME280;41329;41.594;23.810;2023-04-08T01:47:47;95414.59;;;5.91;61.42
55466;BME280;41329;41.594;23.810;2023-04-08T01:50:14;95402.84;;;5.91;61.26
55466;BME280;41329;41.594;23.810;2023-04-08T01:52:42;95422.44;;;6.13;61.10
55466;BME280;41329;41.594;23.810;2023-04-08T01:55:08;95423.81;;;6.07;60.80
55466;BME280;41329;41.594;23.810;2023-04-08T01:57:36;95417.28;;;6.00;60.76
55466;BME280;41329;41.594;23.810;2023-04-08T02:00:06;95428.69;;;6.02;61.02
55466;BME280;41329;41.594;23.810;2023-04-08T02:02:35;95420.66;;;5.85;61.07
55466;BME280;41329;41.594;23.810;2023-04-08T02:05:00;95413.91;;;5.82;61.25
55466;BME280;41329;41.594;23.810;2023-04-08T02:07:26;95375.94;;;5.52;61.64
55466;BME280;41329;41.594;23.810;2023-04-08T02:09:51;95376.47;;;5.33;61.98
55466;BME280;41329;41.594;23.810;2023-04-08T02:12:17;95415.88;;;5.61;62.29
55466;BME280;41329;41.594;23.810;2023-04-08T02:14:42;95428.16;;;5.76;62.08
55466;BME280;41329;41.594;23.810;2023-04-08T02:17:11;95429.63;;;5.73;62.01
55466;BME280;41329;41.594;23.810;2023-04-08T02:24:59;95436.69;;;5.62;62.34
55466;BME280;41329;41.594;23.810;2023-04-08T02:27:28;95414.19;;;5.36;62.59
55466;BME280;41329;41.594;23.810;2023-04-08T02:29:56;95421.69;;;5.27;63.39
55466;BME280;41329;41.594;23.810;2023-04-08T02:32:24;95437.28;;;5.35;63.24
55466;BME280;41329;41.594;23.810;2023-04-08T02:34:50;95427.22;;;5.39;63.26
55466;BME280;41329;41.594;23.810;2023-04-08T02:37:16;95429.53;;;5.49;63.09
55466;BME280;41329;41.594;23.810;2023-04-08T02:39:42;95421.78;;;5.51;63.10
55466;BME280;41329;41.594;23.810;2023-04-08T02:42:07;95425.59;;;5.59;63.03
55466;BME280;41329;41.594;23.810;2023-04-08T02:44:33;95432.13;;;5.66;62.96
55466;BME280;41329;41.594;23.810;2023-04-08T02:46:58;95446.94;;;5.74;62.94
55466;BME280;41329;41.594;23.810;2023-04-08T02:49:23;95448.19;;;5.76;62.62
55466;BME280;41329;41.594;23.810;2023-04-08T02:51:49;95445.91;;;5.78;62.29
55466;BME280;41329;41.594;23.810;2023-04-08T02:54:14;95406.25;;;5.55;62.32
55466;BME280;41329;41.594;23.810;2023-04-08T02:56:40;95443.78;;;5.84;62.32
55466;BME280;41329;41.594;23.810;2023-04-08T02:59:06;95445.50;;;5.88;62.15
55466;BME280;41329;41.594;23.810;2023-04-08T03:01:31;95422.00;;;5.79;62.03
55466;BME280;41329;41.594;23.810;2023-04-08T03:03:57;95435.53;;;5.84;61.62
55466;BME280;41329;41.594;23.810;2023-04-08T03:06:22;95438.53;;;5.91;62.04
55466;BME280;41329;41.594;23.810;2023-04-08T03:08:48;95426.69;;;5.78;62.76
55466;BME280;41329;41.594;23.810;2023-04-08T03:11:13;95441.94;;;5.88;62.60
55466;BME280;41329;41.594;23.810;2023-04-08T03:13:38;95436.47;;;5.88;62.83
55466;BME280;41329;41.594;23.810;2023-04-08T03:16:04;95427.31;;;5.84;62.94
55466;BME280;41329;41.594;23.810;2023-04-08T03:18:30;95441.41;;;5.94;62.82
55466;BME280;41329;41.594;23.810;2023-04-08T03:20:55;95439.91;;;5.97;62.86
55466;BME280;41329;41.594;23.810;2023-04-08T03:23:21;95432.00;;;5.95;62.86
55466;BME280;41329;41.594;23.810;2023-04-08T03:25:46;95434.19;;;6.02;62.80
55466;BME280;41329;41.594;23.810;2023-04-08T03:28:12;95433.06;;;6.03;62.80
55466;BME280;41329;41.594;23.810;2023-04-08T03:30:37;95428.47;;;5.95;62.63
55466;BME280;41329;41.594;23.810;2023-04-08T03:33:03;95423.09;;;5.98;63.01
55466;BME280;41329;41.594;23.810;2023-04-08T03:35:32;95426.88;;;6.06;63.13
55466;BME280;41329;41.594;23.810;2023-04-08T03:37:57;95424.91;;;5.94;63.09
55466;BME280;41329;41.594;23.810;2023-04-08T03:40:23;95414.50;;;5.88;62.98
55466;BME280;41329;41.594;23.810;2023-04-08T03:42:48;95434.97;;;5.90;62.67
55466;BME280;41329;41.594;23.810;2023-04-08T03:45:14;95441.72;;;5.93;63.10
55466;BME280;41329;41.594;23.810;2023-04-08T03:47:39;95419.25;;;5.79;63.12
55466;BME280;41329;41.594;23.810;2023-04-08T03:50:05;95442.06;;;5.91;63.19
55466;BME280;41329;41.594;23.810;2023-04-08T03:52:31;95431.56;;;5.93;63.08
55466;BME280;41329;41.594;23.810;2023-04-08T03:54:56;95443.31;;;5.94;63.18
55466;BME280;41329;41.594;23.810;2023-04-08T03:57:22;95449.25;;;5.84;63.35
55466;BME280;41329;41.594;23.810;2023-04-08T03:59:47;95443.03;;;5.75;63.05
55466;BME280;41329;41.594;23.810;2023-04-08T04:02:13;95451.19;;;5.83;62.87
55466;BME280;41329;41.594;23.810;2023-04-08T04:04:38;95432.97;;;5.79;63.16
55466;BME280;41329;41.594;23.810;2023-04-08T04:07:03;95455.78;;;5.91;63.20
55466;BME280;41329;41.594;23.810;2023-04-08T04:09:29;95451.44;;;5.90;62.91
55466;BME280;41329;41.594;23.810;2023-04-08T04:11:54;95446.06;;;5.94;62.69
55466;BME280;41329;41.594;23.810;2023-04-08T04:14:20;95431.53;;;5.81;62.95
55466;BME280;41329;41.594;23.810;2023-04-08T04:16:45;95430.91;;;5.76;63.38
55466;BME280;41329;41.594;23.810;2023-04-08T04:19:11;95440.13;;;5.92;63.37
55466;BME280;41329;41.594;23.810;2023-04-08T04:21:36;95426.47;;;5.83;63.42
55466;BME280;41329;41.594;23.810;2023-04-08T04:24:02;95438.66;;;5.94;63.76
55466;BME280;41329;41.594;23.810;2023-04-08T04:26:27;95432.72;;;5.92;63.76
55466;BME280;41329;41.594;23.810;2023-04-08T04:28:53;95445.88;;;5.99;63.47
55466;BME280;41329;41.594;23.810;2023-04-08T04:31:22;95441.19;;;5.99;63.85
55466;BME280;41329;41.594;23.810;2023-04-08T04:33:50;95446.44;;;6.04;63.65
55466;BME280;41329;41.594;23.810;2023-04-08T04:36:16;95442.25;;;6.07;63.63
55466;BME280;41329;41.594;23.810;2023-04-08T04:38:42;95441.19;;;6.11;63.45
55466;BME280;41329;41.594;23.810;2023-04-08T04:41:08;95431.38;;;6.10;63.67
55466;BME280;41329;41.594;23.810;2023-04-08T04:43:33;95443.50;;;6.21;63.63
55466;BME280;41329;41.594;23.810;2023-04-08T04:45:59;95417.03;;;5.93;63.22
55466;BME280;41329;41.594;23.810;2023-04-08T04:48:25;95446.06;;;5.94;63.46
55466;BME280;41329;41.594;23.810;2023-04-08T04:50:58;95397.00;;;5.60;63.93
55466;BME280;41329;41.594;23.810;2023-04-08T04:53:24;95436.72;;;5.95;64.14
55466;BME280;41329;41.594;23.810;2023-04-08T04:55:50;95441.66;;;6.01;64.41
55466;BME280;41329;41.594;23.810;2023-04-08T04:58:16;95425.59;;;5.91;64.44
55466;BME280;41329;41.594;23.810;2023-04-08T05:00:41;95420.09;;;5.91;64.66
55466;BME280;41329;41.594;23.810;2023-04-08T05:03:07;95447.00;;;5.98;65.21
55466;BME280;41329;41.594;23.810;2023-04-08T05:05:32;95443.03;;;5.75;65.42
55466;BME280;41329;41.594;23.810;2023-04-08T05:07:57;95441.06;;;5.43;66.21
55466;BME280;41329;41.594;23.810;2023-04-08T05:10:23;95445.84;;;5.34;66.64
55466;BME280;41329;41.594;23.810;2023-04-08T05:12:48;95457.09;;;5.41;66.94
55466;BME280;41329;41.594;23.810;2023-04-08T05:15:14;95452.13;;;5.34;67.29
55466;BME280;41329;41.594;23.810;2023-04-08T05:17:39;95443.41;;;5.32;66.94
55466;BME280;41329;41.594;23.810;2023-04-08T05:20:05;95454.19;;;5.37;66.78
55466;BME280;41329;41.594;23.810;2023-04-08T05:22:31;95439.56;;;5.13;67.18
55466;BME280;41329;41.594;23.810;2023-04-08T05:24:57;95455.41;;;5.07;67.36
55466;BME280;41329;41.594;23.810;2023-04-08T05:27:22;95448.59;;;5.13;67.45
55466;BME280;41329;41.594;23.810;2023-04-08T05:29:48;95457.28;;;5.15;67.20
55466;BME280;41329;41.594;23.810;2023-04-08T05:32:13;95461.91;;;5.23;66.82
55466;BME280;41329;41.594;23.810;2023-04-08T05:34:41;95458.63;;;5.30;66.48
55466;BME280;41329;41.594;23.810;2023-04-08T05:37:06;95459.66;;;5.37;66.59
55466;BME280;41329;41.594;23.810;2023-04-08T05:39:32;95440.22;;;5.30;67.00
55466;BME280;41329;41.594;23.810;2023-04-08T05:41:57;95466.06;;;5.29;67.01
55466;BME280;41329;41.594;23.810;2023-04-08T05:44:22;95454.31;;;5.20;67.04
55466;BME280;41329;41.594;23.810;2023-04-08T05:46:48;95464.31;;;5.25;67.15
55466;BME280;41329;41.594;23.810;2023-04-08T05:49:13;95468.84;;;5.41;67.33
55466;BME280;41329;41.594;23.810;2023-04-08T05:51:41;95477.13;;;5.53;67.45
55466;BME280;41329;41.594;23.810;2023-04-08T05:54:06;95463.63;;;5.48;67.45
55466;BME280;41329;41.594;23.810;2023-04-08T05:56:32;95420.47;;;5.16;67.38
55466;BME280;41329;41.594;23.810;2023-04-08T05:58:59;95465.56;;;5.48;67.81
55466;BME280;41329;41.594;23.810;2023-04-08T06:01:24;95444.78;;;5.26;68.55
55466;BME280;41329;41.594;23.810;2023-04-08T06:03:50;95441.09;;;5.22;68.81
55466;BME280;41329;41.594;23.810;2023-04-08T06:06:16;95468.31;;;5.27;69.22
55466;BME280;41329;41.594;23.810;2023-04-08T06:08:42;95451.09;;;5.39;69.28
55466;BME280;41329;41.594;23.810;2023-04-08T06:11:07;95454.19;;;5.37;69.58
55466;BME280;41329;41.594;23.810;2023-04-08T06:13:33;95439.03;;;5.40;69.66
55466;BME280;41329;41.594;23.810;2023-04-08T06:16:09;95449.03;;;5.56;69.43
55466;BME280;41329;41.594;23.810;2023-04-08T06:18:34;95456.41;;;5.76;68.88
55466;BME280;41329;41.594;23.810;2023-04-08T06:21:00;95440.91;;;5.80;68.00
55466;BME280;41329;41.594;23.810;2023-04-08T06:23:25;95452.31;;;6.03;68.16
55466;BME280;41329;41.594;23.810;2023-04-08T06:25:52;95454.16;;;6.23;67.72
55466;BME280;41329;41.594;23.810;2023-04-08T06:28:18;95453.81;;;6.24;67.34
55466;BME280;41329;41.594;23.810;2023-04-08T06:30:43;95448.09;;;6.29;67.43
55466;BME280;41329;41.594;23.810;2023-04-08T06:33:09;95439.84;;;6.29;67.64
55466;BME280;41329;41.594;23.810;2023-04-08T06:35:34;95432.41;;;6.30;67.28
55466;BME280;41329;41.594;23.810;2023-04-08T06:38:02;95445.59;;;6.36;66.69
55466;BME280;41329;41.594;23.810;2023-04-08T06:40:27;95393.56;;;5.95;66.87
55466;BME280;41329;41.594;23.810;2023-04-08T06:42:53;95444.69;;;6.44;67.08
55466;BME280;41329;41.594;23.810;2023-04-08T06:45:18;95429.44;;;6.47;66.74
55466;BME280;41329;41.594;23.810;2023-04-08T06:47:44;95447.19;;;6.62;66.18
55466;BME280;41329;41.594;23.810;2023-04-08T06:50:09;95443.63;;;6.61;66.27
55466;BME280;41329;41.594;23.810;2023-04-08T06:52:35;95436.19;;;6.74;66.63
55466;BME280;41329;41.594;23.810;2023-04-08T06:55:00;95431.38;;;6.83;66.34
55466;BME280;41329;41.594;23.810;2023-04-08T06:57:26;95445.56;;;6.97;64.14
55466;BME280;41329;41.594;23.810;2023-04-08T06:59:51;95441.88;;;7.05;62.98
55466;BME280;41329;41.594;23.810;2023-04-08T07:02:18;95434.28;;;7.14;63.59
55466;BME280;41329;41.594;23.810;2023-04-08T07:04:43;95429.41;;;7.35;64.75
55466;BME280;41329;41.594;23.810;2023-04-08T07:07:09;95425.63;;;7.39;63.86
55466;BME280;41329;41.594;23.810;2023-04-08T07:09:34;95436.78;;;7.58;63.27
55466;BME280;41329;41.594;23.810;2023-04-08T07:12:01;95441.31;;;7.78;61.62
55466;BME280;41329;41.594;23.810;2023-04-08T07:14:28;95449.69;;;7.82;60.86
55466;BME280;41329;41.594;23.810;2023-04-08T07:16:54;95459.59;;;7.98;61.29
55466;BME280;41329;41.594;23.810;2023-04-08T07:19:20;95447.34;;;8.11;60.54
55466;BME280;41329;41.594;23.810;2023-04-08T07:21:47;95442.75;;;8.31;62.28
55466;BME280;41329;41.594;23.810;2023-04-08T07:24:12;95445.19;;;8.48;62.43
55466;BME280;41329;41.594;23.810;2023-04-08T07:26:38;95448.03;;;8.67;62.79
55466;BME280;41329;41.594;23.810;2023-04-08T07:29:03;95449.63;;;8.68;59.59
55466;BME280;41329;41.594;23.810;2023-04-08T07:31:29;95440.00;;;8.93;60.50
55466;BME280;41329;41.594;23.810;2023-04-08T07:33:56;95434.38;;;9.05;59.54
55466;BME280;41329;41.594;23.810;2023-04-08T07:36:21;95450.63;;;9.10;57.19
55466;BME280;41329;41.594;23.810;2023-04-08T07:38:46;95443.78;;;9.19;56.36
55466;BME280;41329;41.594;23.810;2023-04-08T07:41:12;95436.66;;;9.03;57.44
55466;BME280;41329;41.594;23.810;2023-04-08T07:43:37;95438.41;;;8.92;57.64
55466;BME280;41329;41.594;23.810;2023-04-08T07:46:04;95438.28;;;9.04;57.93
55466;BME280;41329;41.594;23.810;2023-04-08T07:48:33;95439.19;;;9.27;58.26
55466;BME280;41329;41.594;23.810;2023-04-08T07:51:03;95434.13;;;9.29;59.04
55466;BME280;41329;41.594;23.810;2023-04-08T07:53:29;95439.66;;;9.29;56.98
55466;BME280;41329;41.594;23.810;2023-04-08T07:55:54;95423.63;;;9.19;56.95
55466;BME280;41329;41.594;23.810;2023-04-08T07:58:20;95391.50;;;9.11;57.85
55466;BME280;41329;41.594;23.810;2023-04-08T08:00:45;95436.34;;;9.77;58.97
55466;BME280;41329;41.594;23.810;2023-04-08T08:03:10;95440.31;;;10.17;58.81
55466;BME280;41329;41.594;23.810;2023-04-08T08:05:36;95442.41;;;10.43;55.28
55466;BME280;41329;41.594;23.810;2023-04-08T08:08:02;95439.25;;;10.44;53.38
55466;BME280;41329;41.594;23.810;2023-04-08T08:10:28;95434.97;;;10.47;52.88
55466;BME280;41329;41.594;23.810;2023-04-08T08:12:54;95417.56;;;10.46;52.58
55466;BME280;41329;41.594;23.810;2023-04-08T08:15:19;95432.00;;;10.36;52.58
55466;BME280;41329;41.594;23.810;2023-04-08T08:17:44;95423.94;;;10.50;52.11
55466;BME280;41329;41.594;23.810;2023-04-08T08:20:10;95425.97;;;10.76;55.18
55466;BME280;41329;41.594;23.810;2023-04-08T08:22:36;95431.66;;;11.09;51.64
55466;BME280;41329;41.594;23.810;2023-04-08T08:25:04;95433.34;;;11.17;50.33
55466;BME280;41329;41.594;23.810;2023-04-08T08:27:29;95421.41;;;11.13;50.20
55466;BME280;41329;41.594;23.810;2023-04-08T08:29:55;95424.31;;;10.97;49.54
55466;BME280;41329;41.594;23.810;2023-04-08T08:32:21;95433.78;;;11.19;50.81
55466;BME280;41329;41.594;23.810;2023-04-08T08:34:46;95432.88;;;11.37;51.61
55466;BME280;41329;41.594;23.810;2023-04-08T08:37:12;95413.53;;;11.44;50.61
55466;BME280;41329;41.594;23.810;2023-04-08T08:39:37;95434.16;;;11.73;49.81
55466;BME280;41329;41.594;23.810;2023-04-08T08:42:03;95430.94;;;12.00;49.47
55466;BME280;41329;41.594;23.810;2023-04-08T08:44:29;95432.63;;;12.08;46.31
55466;BME280;41329;41.594;23.810;2023-04-08T08:46:55;95433.78;;;12.07;45.93
55466;BME280;41329;41.594;23.810;2023-04-08T08:49:20;95415.09;;;12.01;43.66
55466;BME280;41329;41.594;23.810;2023-04-08T08:51:45;95421.19;;;12.13;44.15
55466;BME280;41329;41.594;23.810;2023-04-08T08:54:12;95411.59;;;12.07;43.73
55466;BME280;41329;41.594;23.810;2023-04-08T08:56:39;95412.50;;;12.15;43.79
55466;BME280;41329;41.594;23.810;2023-04-08T08:59:04;95419.03;;;12.33;45.00
55466;BME280;41329;41.594;23.810;2023-04-08T09:01:39;95410.16;;;12.57;45.84
55466;BME280;41329;41.594;23.810;2023-04-08T09:04:16;95411.84;;;12.69;44.63
55466;BME280;41329;41.594;23.810;2023-04-08T09:06:44;95412.75;;;12.83;45.12
55466;BME280;41329;41.594;23.810;2023-04-08T09:09:11;95417.19;;;12.88;44.91
55466;BME280;41329;41.594;23.810;2023-04-08T09:11:38;95415.44;;;13.13;45.77
55466;BME280;41329;41.594;23.810;2023-04-08T09:14:16;95409.53;;;13.21;43.87
55466;BME280;41329;41.594;23.810;2023-04-08T09:16:41;95418.69;;;13.25;42.74
55466;BME280;41329;41.594;23.810;2023-04-08T09:19:09;95397.41;;;12.96;41.55
55466;BME280;41329;41.594;23.810;2023-04-08T09:21:35;95410.75;;;12.80;43.26
55466;BME280;41329;41.594;23.810;2023-04-08T09:24:01;95409.22;;;12.86;43.51
55466;BME280;41329;41.594;23.810;2023-04-08T09:26:26;95405.34;;;12.94;42.21
55466;BME280;41329;41.594;23.810;2023-04-08T09:29:06;95403.34;;;12.95;43.39
55466;BME280;41329;41.594;23.810;2023-04-08T09:31:36;95400.66;;;13.05;42.78
55466;BME280;41329;41.594;23.810;2023-04-08T09:34:16;95406.41;;;13.30;44.60
55466;BME280;41329;41.594;23.810;2023-04-08T09:36:43;95410.88;;;13.45;40.08
55466;BME280;41329;41.594;23.810;2023-04-08T09:39:10;95401.38;;;13.53;41.47
55466;BME280;41329;41.594;23.810;2023-04-08T09:41:36;95408.59;;;13.64;40.43
55466;BME280;41329;41.594;23.810;2023-04-08T09:44:04;95394.72;;;13.75;42.15
55466;BME280;41329;41.594;23.810;2023-04-08T09:54:31;95391.66;;;13.94;40.94
55466;BME280;41329;41.594;23.810;2023-04-08T09:57:09;95378.97;;;14.07;39.99
55466;BME280;41329;41.594;23.810;2023-04-08T09:59:36;95349.94;;;13.97;40.23
55466;BME280;41329;41.594;23.810;2023-04-08T10:02:08;95391.38;;;14.23;39.63
55466;BME280;41329;41.594;23.810;2023-04-08T10:04:38;95395.34;;;14.22;39.08
55466;BME280;41329;41.594;23.810;2023-04-08T10:07:07;95386.16;;;14.15;38.70
55466;BME280;41329;41.594;23.810;2023-04-08T10:09:34;95393.31;;;14.12;39.52
55466;BME280;41329;41.594;23.810;2023-04-08T10:12:00;95376.59;;;14.05;38.58
55466;BME280;41329;41.594;23.810;2023-04-08T10:14:26;95397.59;;;13.92;39.41
55466;BME280;41329;41.594;23.810;2023-04-08T10:17:22;95389.94;;;13.65;39.19
55466;BME280;41329;41.594;23.810;2023-04-08T10:19:48;95371.56;;;13.43;39.39
55466;BME280;41329;41.594;23.810;2023-04-08T10:25:30;95387.59;;;13.77;38.98
55466;BME280;41329;41.594;23.810;2023-04-08T10:27:56;95375.28;;;13.75;38.67
55466;BME280;41329;41.594;23.810;2023-04-08T10:32:50;95392.50;;;14.08;40.32
55466;BME280;41329;41.594;23.810;2023-04-08T10:35:15;95385.03;;;14.26;40.16
55466;BME280;41329;41.594;23.810;2023-04-08T10:37:42;95377.47;;;14.34;38.90
55466;BME280;41329;41.594;23.810;2023-04-08T10:40:18;95364.69;;;14.08;38.88
55466;BME280;41329;41.594;23.810;2023-04-08T10:42:43;95377.88;;;14.29;39.71
55466;BME280;41329;41.594;23.810;2023-04-08T10:45:09;95364.78;;;14.47;41.12
55466;BME280;41329;41.594;23.810;2023-04-08T10:47:35;95347.69;;;14.69;41.85
55466;BME280;41329;41.594;23.810;2023-04-08T10:50:12;95348.09;;;14.96;42.67
55466;BME280;41329;41.594;23.810;2023-04-08T10:52:48;95359.19;;;15.27;40.07
55466;BME280;41329;41.594;23.810;2023-04-08T10:55:14;95363.97;;;15.27;37.75
55466;BME280;41329;41.594;23.810;2023-04-08T10:57:41;95360.81;;;15.14;37.26
55466;BME280;41329;41.594;23.810;2023-04-08T11:00:14;95363.22;;;14.74;37.44
55466;BME280;41329;41.594;23.810;2023-04-08T11:02:42;95364.00;;;14.64;37.66
55466;BME280;41329;41.594;23.810;2023-04-08T11:05:09;95356.03;;;14.45;37.41
55466;BME280;41329;41.594;23.810;2023-04-08T11:07:43;95332.97;;;14.37;38.77
55466;BME280;41329;41.594;23.810;2023-04-08T11:10:09;95314.28;;;14.34;38.74
55466;BME280;41329;41.594;23.810;2023-04-08T11:12:36;95347.72;;;14.66;38.30
55466;BME280;41329;41.594;23.810;2023-04-08T11:15:03;95342.16;;;14.62;38.04
55466;BME280;41329;41.594;23.810;2023-04-08T11:17:29;95323.03;;;14.50;37.52
55466;BME280;41329;41.594;23.810;2023-04-08T11:19:55;95328.59;;;14.68;38.08
55466;BME280;41329;41.594;23.810;2023-04-08T11:22:27;95332.97;;;14.62;37.45
55466;BME280;41329;41.594;23.810;2023-04-08T11:24:54;95323.06;;;14.61;36.93
55466;BME280;41329;41.594;23.810;2023-04-08T11:27:20;95334.16;;;14.57;37.08
55466;BME280;41329;41.594;23.810;2023-04-08T11:29:50;95317.47;;;14.50;37.15
55466;BME280;41329;41.594;23.810;2023-04-08T11:32:15;95311.91;;;14.40;36.54
55466;BME280;41329;41.594;23.810;2023-04-08T11:34:41;95334.56;;;14.63;38.12
55466;BME280;41329;41.594;23.810;2023-04-08T11:37:07;95323.84;;;14.79;37.66
55466;BME280;41329;41.594;23.810;2023-04-08T11:39:33;95331.78;;;14.91;37.65
55466;BME280;41329;41.594;23.810;2023-04-08T11:41:59;95317.06;;;14.80;36.13
55466;BME280;41329;41.594;23.810;2023-04-08T11:44:31;95323.44;;;14.91;38.03
55466;BME280;41329;41.594;23.810;2023-04-08T11:46:57;95309.06;;;15.13;36.99
55466;BME280;41329;41.594;23.810;2023-04-08T11:49:23;95314.19;;;15.46;38.54
55466;BME280;41329;41.594;23.810;2023-04-08T11:51:56;95325.69;;;15.62;36.42
55466;BME280;41329;41.594;23.810;2023-04-08T11:54:27;95328.53;;;15.38;35.09
55466;BME280;41329;41.594;23.810;2023-04-08T11:56:53;95324.56;;;15.39;35.13
55466;BME280;41329;41.594;23.810;2023-04-08T11:59:18;95315.06;;;15.08;34.71
55466;BME280;41329;41.594;23.810;2023-04-08T12:01:44;95314.59;;;15.20;35.87
55466;BME280;41329;41.594;23.810;2023-04-08T12:04:10;95291.91;;;15.22;35.23
55466;BME280;41329;41.594;23.810;2023-04-08T12:06:36;95305.84;;;15.39;35.61
55466;BME280;41329;41.594;23.810;2023-04-08T12:09:01;95281.56;;;15.26;34.94
55466;BME280;41329;41.594;23.810;2023-04-08T12:11:27;95282.84;;;14.65;34.32
55466;BME280;41329;41.594;23.810;2023-04-08T12:13:52;95303.13;;;14.59;35.19
55466;BME280;41329;41.594;23.810;2023-04-08T12:16:18;95301.56;;;14.44;33.53
55466;BME280;41329;41.594;23.810;2023-04-08T12:18:44;95282.47;;;14.49;34.18
55466;BME280;41329;41.594;23.810;2023-04-08T12:21:10;95294.00;;;14.44;34.05
55466;BME280;41329;41.594;23.810;2023-04-08T12:23:36;95279.22;;;14.19;35.04
55466;BME280;41329;41.594;23.810;2023-04-08T12:26:02;95286.00;;;14.15;34.85
55466;BME280;41329;41.594;23.810;2023-04-08T12:28:27;95273.69;;;14.12;35.30
55466;BME280;41329;41.594;23.810;2023-04-08T12:30:53;95267.25;;;13.94;35.37
55466;BME280;41329;41.594;23.810;2023-04-08T12:33:18;95272.06;;;14.11;35.90
55466;BME280;41329;41.594;23.810;2023-04-08T12:35:44;95274.06;;;14.14;36.33
55466;BME280;41329;41.594;23.810;2023-04-08T12:38:09;95271.69;;;14.16;36.15
55466;BME280;41329;41.594;23.810;2023-04-08T12:40:35;95270.47;;;14.07;36.71
55466;BME280;41329;41.594;23.810;2023-04-08T12:43:00;95260.16;;;13.97;36.64
55466;BME280;41329;41.594;23.810;2023-04-08T12:45:25;95262.53;;;14.12;37.24
55466;BME280;41329;41.594;23.810;2023-04-08T12:47:51;95267.75;;;14.31;37.39
55466;BME280;41329;41.594;23.810;2023-04-08T12:50:16;95269.72;;;14.48;37.33
55466;BME280;41329;41.594;23.810;2023-04-08T12:52:42;95257.41;;;14.53;36.78
55466;BME280;41329;41.594;23.810;2023-04-08T12:55:07;95266.56;;;14.67;36.80
55466;BME280;41329;41.594;23.810;2023-04-08T12:57:33;95248.25;;;14.66;36.90
55466;BME280;41329;41.594;23.810;2023-04-08T12:59:58;95262.16;;;14.87;37.06
55466;BME280;41329;41.594;23.810;2023-04-08T13:02:24;95236.69;;;14.85;36.38
55466;BME280;41329;41.594;23.810;2023-04-08T13:04:51;95245.81;;;14.93;35.49
55466;BME280;41329;41.594;23.810;2023-04-08T13:07:18;95242.25;;;14.78;35.84
55466;BME280;41329;41.594;23.810;2023-04-08T13:09:43;95238.31;;;14.69;35.78
55466;BME280;41329;41.594;23.810;2023-04-08T13:12:09;95254.22;;;14.30;35.92
55466;BME280;41329;41.594;23.810;2023-04-08T13:14:36;95253.44;;;14.29;35.75